Terminal Aerodrome Forecast
Issued by NWS

Home | Current Version | Previous Version | Text Only | Print | Product List | Glossary On
Versions: 1 2 3 4 5 6 7 8 9 10 11 12 13 14 15 16 17
000
FTUS42 KGSP 012300
TAFGMU
TAF
KGMU 012320Z 0200/0224 22003KT P6SM FEW060 SCT200
     FM021500 24006KT P6SM SCT060
     FM022100 24007KT P6SM SCT050 PROB30 0221/0224 TSRA BKN040CB=

USA.gov is the U.S. government's official web portal to all federal, state and local government web resources and services.